sensor_id;sensor_type;location;lat;lon;timestamp;temperature;humidity
1411;DHT22;700;51.906;8.404;2022-07-09T00:03:33;20.70;99.90
1411;DHT22;700;51.906;8.404;2022-07-09T00:08:34;20.70;99.90
1411;DHT22;700;51.906;8.404;2022-07-09T00:13:34;20.80;99.90
1411;DHT22;700;51.906;8.404;2022-07-09T00:18:35;20.80;99.90
1411;DHT22;700;51.906;8.404;2022-07-09T00:23:36;20.80;99.90
1411;DHT22;700;51.906;8.404;2022-07-09T00:28:36;20.70;99.90
1411;DHT22;700;51.906;8.404;2022-07-09T00:33:37;20.60;99.90
1411;DHT22;700;51.906;8.404;2022-07-09T00:38:38;20.60;99.90
1411;DHT22;700;51.906;8.404;2022-07-09T00:43:49;20.50;99.90
1411;DHT22;700;51.906;8.404;2022-07-09T00:48:50;20.40;99.90
1411;DHT22;700;51.906;8.404;2022-07-09T00:53:51;20.20;99.90
1411;DHT22;700;51.906;8.404;2022-07-09T00:58:51;20.20;99.90
1411;DHT22;700;51.906;8.404;2022-07-09T01:03:53;20.10;99.90
1411;DHT22;700;51.906;8.404;2022-07-09T01:08:53;20.00;99.90
1411;DHT22;700;51.906;8.404;2022-07-09T01:13:54;19.90;99.90
1411;DHT22;700;51.906;8.404;2022-07-09T01:18:57;19.90;99.90
1411;DHT22;700;51.906;8.404;2022-07-09T01:23:58;19.90;99.90
1411;DHT22;700;51.906;8.404;2022-07-09T01:28:58;19.90;99.90
1411;DHT22;700;51.906;8.404;2022-07-09T01:33:59;19.90;99.90
1411;DHT22;700;51.906;8.404;2022-07-09T01:39:00;19.70;99.90
1411;DHT22;700;51.906;8.404;2022-07-09T01:44:00;19.40;99.90
1411;DHT22;700;51.906;8.404;2022-07-09T01:49:04;19.60;99.90
1411;DHT22;700;51.906;8.404;2022-07-09T01:54:07;19.70;99.90
1411;DHT22;700;51.906;8.404;2022-07-09T01:59:12;19.80;99.90
1411;DHT22;700;51.906;8.404;2022-07-09T02:04:17;19.70;99.90
1411;DHT22;700;51.906;8.404;2022-07-09T02:09:18;19.80;99.90
1411;DHT22;700;51.906;8.404;2022-07-09T02:14:20;19.90;99.90
1411;DHT22;700;51.906;8.404;2022-07-09T02:19:20;19.90;99.90
1411;DHT22;700;51.906;8.404;2022-07-09T02:24:26;19.90;99.90
1411;DHT22;700;51.906;8.404;2022-07-09T02:29:26;19.90;99.90
1411;DHT22;700;51.906;8.404;2022-07-09T02:34:27;20.00;99.90
1411;DHT22;700;51.906;8.404;2022-07-09T02:39:28;20.00;99.90
1411;DHT22;700;51.906;8.404;2022-07-09T02:44:28;20.10;99.90
1411;DHT22;700;51.906;8.404;2022-07-09T02:49:29;20.10;99.90
1411;DHT22;700;51.906;8.404;2022-07-09T02:54:30;20.30;99.90
1411;DHT22;700;51.906;8.404;2022-07-09T02:59:33;20.20;99.90
1411;DHT22;700;51.906;8.404;2022-07-09T03:04:34;20.30;99.90
1411;DHT22;700;51.906;8.404;2022-07-09T03:09:36;20.30;99.90
1411;DHT22;700;51.906;8.404;2022-07-09T03:14:37;20.30;99.90
1411;DHT22;700;51.906;8.404;2022-07-09T03:19:38;20.40;99.90
1411;DHT22;700;51.906;8.404;2022-07-09T03:24:38;20.40;99.90
1411;DHT22;700;51.906;8.404;2022-07-09T03:29:41;20.40;99.90
1411;DHT22;700;51.906;8.404;2022-07-09T03:34:44;20.40;99.90
1411;DHT22;700;51.906;8.404;2022-07-09T03:39:47;20.40;99.90
1411;DHT22;700;51.906;8.404;2022-07-09T03:44:53;20.40;99.90
1411;DHT22;700;51.906;8.404;2022-07-09T03:49:54;20.50;99.90
1411;DHT22;700;51.906;8.404;2022-07-09T03:54:54;20.40;99.90
1411;DHT22;700;51.906;8.404;2022-07-09T03:59:55;20.50;99.90
1411;DHT22;700;51.906;8.404;2022-07-09T04:04:58;20.40;99.90
1411;DHT22;700;51.906;8.404;2022-07-09T04:09:59;20.40;99.90
1411;DHT22;700;51.906;8.404;2022-07-09T04:14:59;20.50;99.90
1411;DHT22;700;51.906;8.404;2022-07-09T04:20:02;20.50;99.90
1411;DHT22;700;51.906;8.404;2022-07-09T04:25:03;20.50;99.90
1411;DHT22;700;51.906;8.404;2022-07-09T04:30:06;20.40;99.90
1411;DHT22;700;51.906;8.404;2022-07-09T04:35:07;20.50;99.90
1411;DHT22;700;51.906;8.404;2022-07-09T04:40:11;20.30;99.90
1411;DHT22;700;51.906;8.404;2022-07-09T04:45:11;20.50;99.90
1411;DHT22;700;51.906;8.404;2022-07-09T04:50:12;20.50;99.90
1411;DHT22;700;51.906;8.404;2022-07-09T04:55:15;20.50;99.90
1411;DHT22;700;51.906;8.404;2022-07-09T05:00:17;20.40;99.90
1411;DHT22;700;51.906;8.404;2022-07-09T05:05:18;20.60;99.90
1411;DHT22;700;51.906;8.404;2022-07-09T05:10:22;20.80;99.90
1411;DHT22;700;51.906;8.404;2022-07-09T05:15:25;20.90;99.90
1411;DHT22;700;51.906;8.404;2022-07-09T05:20:26;20.90;99.90
1411;DHT22;700;51.906;8.404;2022-07-09T05:25:27;20.80;99.90
1411;DHT22;700;51.906;8.404;2022-07-09T05:30:27;20.90;99.90
1411;DHT22;700;51.906;8.404;2022-07-09T05:35:28;20.90;99.90
1411;DHT22;700;51.906;8.404;2022-07-09T05:40:31;20.90;99.90
1411;DHT22;700;51.906;8.404;2022-07-09T05:45:34;20.90;99.90
1411;DHT22;700;51.906;8.404;2022-07-09T05:50:35;20.90;99.90
1411;DHT22;700;51.906;8.404;2022-07-09T05:55:38;20.80;99.90
1411;DHT22;700;51.906;8.404;2022-07-09T06:00:41;21.00;99.90
1411;DHT22;700;51.906;8.404;2022-07-09T06:05:42;21.20;99.90
1411;DHT22;700;51.906;8.404;2022-07-09T06:10:45;21.30;99.90
1411;DHT22;700;51.906;8.404;2022-07-09T06:15:45;21.40;99.90
1411;DHT22;700;51.906;8.404;2022-07-09T06:20:46;21.40;99.90
1411;DHT22;700;51.906;8.404;2022-07-09T06:25:49;21.50;99.90
1411;DHT22;700;51.906;8.404;2022-07-09T06:30:49;21.60;99.90
1411;DHT22;700;51.906;8.404;2022-07-09T06:35:51;21.80;99.90
1411;DHT22;700;51.906;8.404;2022-07-09T06:40:54;21.80;99.90
1411;DHT22;700;51.906;8.404;2022-07-09T06:45:54;22.00;99.90
1411;DHT22;700;51.906;8.404;2022-07-09T06:50:55;22.10;99.90
1411;DHT22;700;51.906;8.404;2022-07-09T06:55:56;22.30;99.90
1411;DHT22;700;51.906;8.404;2022-07-09T07:00:59;22.50;99.90
1411;DHT22;700;51.906;8.404;2022-07-09T07:06:02;22.40;99.90
1411;DHT22;700;51.906;8.404;2022-07-09T07:11:02;22.40;99.90
1411;DHT22;700;51.906;8.404;2022-07-09T07:16:03;22.10;99.90
1411;DHT22;700;51.906;8.404;2022-07-09T07:21:04;22.20;99.90
1411;DHT22;700;51.906;8.404;2022-07-09T07:26:10;22.70;99.90
1411;DHT22;700;51.906;8.404;2022-07-09T07:31:13;22.70;99.90
1411;DHT22;700;51.906;8.404;2022-07-09T07:36:13;22.80;99.90
1411;DHT22;700;51.906;8.404;2022-07-09T07:41:14;22.60;99.90
1411;DHT22;700;51.906;8.404;2022-07-09T07:46:19;22.70;99.90
1411;DHT22;700;51.906;8.404;2022-07-09T07:51:20;22.20;99.90
1411;DHT22;700;51.906;8.404;2022-07-09T07:56:25;22.10;99.90
1411;DHT22;700;51.906;8.404;2022-07-09T08:01:25;22.40;99.90
1411;DHT22;700;51.906;8.404;2022-07-09T08:06:26;22.80;99.90
1411;DHT22;700;51.906;8.404;2022-07-09T08:11:27;23.50;99.90
1411;DHT22;700;51.906;8.404;2022-07-09T08:16:28;24.10;99.90
1411;DHT22;700;51.906;8.404;2022-07-09T08:21:30;24.60;99.90
1411;DHT22;700;51.906;8.404;2022-07-09T08:26:31;25.10;99.90
1411;DHT22;700;51.906;8.404;2022-07-09T08:31:32;25.10;99.90
1411;DHT22;700;51.906;8.404;2022-07-09T08:36:32;24.80;99.90
1411;DHT22;700;51.906;8.404;2022-07-09T08:41:33;24.30;99.90
1411;DHT22;700;51.906;8.404;2022-07-09T08:46:34;24.20;99.90
1411;DHT22;700;51.906;8.404;2022-07-09T08:51:35;24.20;99.90
1411;DHT22;700;51.906;8.404;2022-07-09T08:56:39;24.50;99.90
1411;DHT22;700;51.906;8.404;2022-07-09T09:01:40;24.90;99.90
1411;DHT22;700;51.906;8.404;2022-07-09T09:06:41;25.10;99.90
1411;DHT22;700;51.906;8.404;2022-07-09T09:11:47;25.50;99.90
1411;DHT22;700;51.906;8.404;2022-07-09T09:16:52;25.50;99.90
1411;DHT22;700;51.906;8.404;2022-07-09T09:21:52;25.80;99.90
1411;DHT22;700;51.906;8.404;2022-07-09T09:27:00;25.50;99.90
1411;DHT22;700;51.906;8.404;2022-07-09T09:32:09;25.30;99.90
1411;DHT22;700;51.906;8.404;2022-07-09T09:37:10;25.00;99.90
1411;DHT22;700;51.906;8.404;2022-07-09T09:42:16;25.10;99.90
1411;DHT22;700;51.906;8.404;2022-07-09T09:47:21;24.90;99.90
1411;DHT22;700;51.906;8.404;2022-07-09T09:52:24;24.80;99.90
1411;DHT22;700;51.906;8.404;2022-07-09T09:57:27;25.00;99.90
1411;DHT22;700;51.906;8.404;2022-07-09T10:02:30;25.00;99.90
1411;DHT22;700;51.906;8.404;2022-07-09T10:07:33;24.90;99.90
1411;DHT22;700;51.906;8.404;2022-07-09T10:12:35;25.20;99.90
1411;DHT22;700;51.906;8.404;2022-07-09T10:17:40;26.30;99.90
1411;DHT22;700;51.906;8.404;2022-07-09T10:22:44;26.90;99.90
1411;DHT22;700;51.906;8.404;2022-07-09T10:27:49;28.20;99.90
1411;DHT22;700;51.906;8.404;2022-07-09T10:33:09;29.20;99.90
1411;DHT22;700;51.906;8.404;2022-07-09T10:38:13;29.70;99.90
1411;DHT22;700;51.906;8.404;2022-07-09T10:43:14;28.90;99.90
1411;DHT22;700;51.906;8.404;2022-07-09T10:48:20;28.40;99.90
1411;DHT22;700;51.906;8.404;2022-07-09T10:53:29;29.30;99.90
1411;DHT22;700;51.906;8.404;2022-07-09T10:58:30;30.30;99.90
1411;DHT22;700;51.906;8.404;2022-07-09T11:03:31;31.90;94.70
1411;DHT22;700;51.906;8.404;2022-07-09T11:08:34;34.90;89.20
1411;DHT22;700;51.906;8.404;2022-07-09T11:13:38;36.50;73.70
1411;DHT22;700;51.906;8.404;2022-07-09T11:18:39;36.50;68.20
1411;DHT22;700;51.906;8.404;2022-07-09T11:23:48;34.70;66.80
1411;DHT22;700;51.906;8.404;2022-07-09T11:28:52;31.90;73.90
1411;DHT22;700;51.906;8.404;2022-07-09T11:33:53;30.10;80.10
1411;DHT22;700;51.906;8.404;2022-07-09T11:39:32;28.50;88.60
1411;DHT22;700;51.906;8.404;2022-07-09T11:44:36;29.20;91.80
1411;DHT22;700;51.906;8.404;2022-07-09T11:49:41;33.10;83.00
1411;DHT22;700;51.906;8.404;2022-07-09T11:54:57;34.80;72.40
1411;DHT22;700;51.906;8.404;2022-07-09T11:59:58;34.50;71.00
1411;DHT22;700;51.906;8.404;2022-07-09T12:05:00;36.60;67.10
1411;DHT22;700;51.906;8.404;2022-07-09T12:15:07;40.40;52.30
1411;DHT22;700;51.906;8.404;2022-07-09T12:20:09;40.60;51.00
1411;DHT22;700;51.906;8.404;2022-07-09T12:25:10;42.90;46.70
1411;DHT22;700;51.906;8.404;2022-07-09T12:30:11;44.50;43.50
1411;DHT22;700;51.906;8.404;2022-07-09T12:35:12;43.50;42.80
1411;DHT22;700;51.906;8.404;2022-07-09T12:40:13;44.80;39.70
1411;DHT22;700;51.906;8.404;2022-07-09T12:45:16;43.10;38.00
1411;DHT22;700;51.906;8.404;2022-07-09T12:50:21;41.40;40.00
1411;DHT22;700;51.906;8.404;2022-07-09T12:55:22;39.50;41.60
1411;DHT22;700;51.906;8.404;2022-07-09T13:00:25;38.80;42.50
1411;DHT22;700;51.906;8.404;2022-07-09T13:05:28;37.90;42.00
1411;DHT22;700;51.906;8.404;2022-07-09T13:10:28;37.50;44.40
1411;DHT22;700;51.906;8.404;2022-07-09T13:15:30;37.10;45.30
1411;DHT22;700;51.906;8.404;2022-07-09T13:20:31;36.30;47.20
1411;DHT22;700;51.906;8.404;2022-07-09T13:25:35;35.20;48.40
1411;DHT22;700;51.906;8.404;2022-07-09T13:30:35;33.40;50.00
1411;DHT22;700;51.906;8.404;2022-07-09T13:35:39;33.40;50.00
1411;DHT22;700;51.906;8.404;2022-07-09T13:40:40;34.70;49.10
1411;DHT22;700;51.906;8.404;2022-07-09T13:45:40;34.00;47.90
1411;DHT22;700;51.906;8.404;2022-07-09T13:50:41;32.60;51.10
1411;DHT22;700;51.906;8.404;2022-07-09T13:55:43;33.50;49.90
1411;DHT22;700;51.906;8.404;2022-07-09T14:00:46;34.60;49.20
1411;DHT22;700;51.906;8.404;2022-07-09T14:05:47;33.80;48.00
1411;DHT22;700;51.906;8.404;2022-07-09T14:10:47;32.80;48.70
1411;DHT22;700;51.906;8.404;2022-07-09T14:15:55;32.90;49.20
1411;DHT22;700;51.906;8.404;2022-07-09T14:20:59;32.60;50.50
1411;DHT22;700;51.906;8.404;2022-07-09T14:25:59;32.30;54.10
1411;DHT22;700;51.906;8.404;2022-07-09T14:31:00;31.60;56.00
1411;DHT22;700;51.906;8.404;2022-07-09T14:36:04;31.10;55.60
1411;DHT22;700;51.906;8.404;2022-07-09T14:41:06;31.30;56.50
1411;DHT22;700;51.906;8.404;2022-07-09T14:46:09;31.40;57.20
1411;DHT22;700;51.906;8.404;2022-07-09T14:51:10;31.10;58.20
1411;DHT22;700;51.906;8.404;2022-07-09T14:56:13;30.20;58.90
1411;DHT22;700;51.906;8.404;2022-07-09T15:01:16;29.90;60.10
1411;DHT22;700;51.906;8.404;2022-07-09T15:06:19;29.90;59.40
1411;DHT22;700;51.906;8.404;2022-07-09T15:11:19;30.00;61.20
1411;DHT22;700;51.906;8.404;2022-07-09T15:16:20;29.80;60.80
1411;DHT22;700;51.906;8.404;2022-07-09T15:21:21;29.50;60.60
1411;DHT22;700;51.906;8.404;2022-07-09T15:26:24;29.40;60.30
1411;DHT22;700;51.906;8.404;2022-07-09T15:31:25;29.30;59.80
1411;DHT22;700;51.906;8.404;2022-07-09T15:36:28;28.90;60.70
1411;DHT22;700;51.906;8.404;2022-07-09T15:41:28;29.00;61.10
1411;DHT22;700;51.906;8.404;2022-07-09T15:46:35;28.60;60.30
1411;DHT22;700;51.906;8.404;2022-07-09T15:51:36;28.60;62.00
1411;DHT22;700;51.906;8.404;2022-07-09T15:56:39;28.50;62.50
1411;DHT22;700;51.906;8.404;2022-07-09T16:01:39;28.60;63.40
1411;DHT22;700;51.906;8.404;2022-07-09T16:06:40;28.50;64.90
1411;DHT22;700;51.906;8.404;2022-07-09T16:11:41;28.30;67.90
1411;DHT22;700;51.906;8.404;2022-07-09T16:17:00;27.50;68.10
1411;DHT22;700;51.906;8.404;2022-07-09T16:22:05;27.20;69.50
1411;DHT22;700;51.906;8.404;2022-07-09T16:27:06;26.90;70.60
1411;DHT22;700;51.906;8.404;2022-07-09T16:32:07;26.80;71.40
1411;DHT22;700;51.906;8.404;2022-07-09T16:37:10;26.90;71.90
1411;DHT22;700;51.906;8.404;2022-07-09T16:42:10;27.00;72.70
1411;DHT22;700;51.906;8.404;2022-07-09T16:47:12;27.20;73.10
1411;DHT22;700;51.906;8.404;2022-07-09T16:52:15;27.00;72.80
1411;DHT22;700;51.906;8.404;2022-07-09T16:57:18;26.90;72.10
1411;DHT22;700;51.906;8.404;2022-07-09T17:02:18;26.80;71.00
1411;DHT22;700;51.906;8.404;2022-07-09T17:07:19;26.80;70.80
1411;DHT22;700;51.906;8.404;2022-07-09T17:12:20;26.80;69.70
1411;DHT22;700;51.906;8.404;2022-07-09T17:17:21;26.60;69.80
1411;DHT22;700;51.906;8.404;2022-07-09T17:22:21;26.40;71.90
1411;DHT22;700;51.906;8.404;2022-07-09T17:27:22;26.00;71.70
1411;DHT22;700;51.906;8.404;2022-07-09T17:32:22;25.60;71.20
1411;DHT22;700;51.906;8.404;2022-07-09T17:37:25;25.50;73.50
1411;DHT22;700;51.906;8.404;2022-07-09T17:42:26;25.10;74.30
1411;DHT22;700;51.906;8.404;2022-07-09T17:47:27;24.90;75.10
1411;DHT22;700;51.906;8.404;2022-07-09T17:52:32;24.70;76.60
1411;DHT22;700;51.906;8.404;2022-07-09T17:57:33;24.40;76.70
1411;DHT22;700;51.906;8.404;2022-07-09T18:02:34;24.10;78.20
1411;DHT22;700;51.906;8.404;2022-07-09T18:07:37;23.80;79.50
1411;DHT22;700;51.906;8.404;2022-07-09T18:12:37;23.50;80.70
1411;DHT22;700;51.906;8.404;2022-07-09T18:17:40;23.40;81.20
1411;DHT22;700;51.906;8.404;2022-07-09T18:22:41;23.40;82.00
1411;DHT22;700;51.906;8.404;2022-07-09T18:27:43;23.20;81.60
1411;DHT22;700;51.906;8.404;2022-07-09T18:32:46;23.00;82.20
1411;DHT22;700;51.906;8.404;2022-07-09T18:37:48;23.00;83.20
1411;DHT22;700;51.906;8.404;2022-07-09T18:42:49;22.60;83.40
1411;DHT22;700;51.906;8.404;2022-07-09T18:47:50;22.30;84.60
1411;DHT22;700;51.906;8.404;2022-07-09T18:52:53;22.30;86.10
1411;DHT22;700;51.906;8.404;2022-07-09T18:57:56;22.40;84.20
1411;DHT22;700;51.906;8.404;2022-07-09T19:02:59;22.20;83.70
1411;DHT22;700;51.906;8.404;2022-07-09T19:08:02;21.90;84.30
1411;DHT22;700;51.906;8.404;2022-07-09T19:13:03;21.70;85.50
1411;DHT22;700;51.906;8.404;2022-07-09T19:18:04;21.70;86.00
1411;DHT22;700;51.906;8.404;2022-07-09T19:23:07;21.40;85.60
1411;DHT22;700;51.906;8.404;2022-07-09T19:28:08;21.50;86.90
1411;DHT22;700;51.906;8.404;2022-07-09T19:33:08;21.30;87.90
1411;DHT22;700;51.906;8.404;2022-07-09T19:38:27;21.20;90.00
1411;DHT22;700;51.906;8.404;2022-07-09T19:43:30;20.80;90.70
1411;DHT22;700;51.906;8.404;2022-07-09T19:48:33;21.00;91.40
1411;DHT22;700;51.906;8.404;2022-07-09T19:53:36;21.00;92.20
1411;DHT22;700;51.906;8.404;2022-07-09T19:58:37;20.90;92.20
1411;DHT22;700;51.906;8.404;2022-07-09T20:03:38;20.70;91.10
1411;DHT22;700;51.906;8.404;2022-07-09T20:08:39;20.60;90.20
1411;DHT22;700;51.906;8.404;2022-07-09T20:13:40;20.30;89.90
1411;DHT22;700;51.906;8.404;2022-07-09T20:18:46;20.20;90.00
1411;DHT22;700;51.906;8.404;2022-07-09T20:23:48;20.10;90.00
1411;DHT22;700;51.906;8.404;2022-07-09T20:28:48;20.00;90.00
1411;DHT22;700;51.906;8.404;2022-07-09T20:33:49;19.90;90.90
1411;DHT22;700;51.906;8.404;2022-07-09T20:38:50;19.80;91.40
1411;DHT22;700;51.906;8.404;2022-07-09T20:43:50;19.80;91.40
1411;DHT22;700;51.906;8.404;2022-07-09T20:48:51;19.70;91.80
1411;DHT22;700;51.906;8.404;2022-07-09T20:53:56;19.50;92.40
1411;DHT22;700;51.906;8.404;2022-07-09T20:58:59;19.30;93.30
1411;DHT22;700;51.906;8.404;2022-07-09T21:04:00;19.20;93.60
1411;DHT22;700;51.906;8.404;2022-07-09T21:09:03;19.30;94.00
1411;DHT22;700;51.906;8.404;2022-07-09T21:14:04;19.10;94.70
1411;DHT22;700;51.906;8.404;2022-07-09T21:19:04;19.40;95.50
1411;DHT22;700;51.906;8.404;2022-07-09T21:24:05;19.40;95.50
1411;DHT22;700;51.906;8.404;2022-07-09T21:29:08;19.60;95.60
1411;DHT22;700;51.906;8.404;2022-07-09T21:34:10;19.30;96.30
1411;DHT22;700;51.906;8.404;2022-07-09T21:39:13;19.30;96.90
1411;DHT22;700;51.906;8.404;2022-07-09T21:44:16;19.40;97.00
1411;DHT22;700;51.906;8.404;2022-07-09T21:49:21;19.30;97.10
1411;DHT22;700;51.906;8.404;2022-07-09T21:54:22;19.20;97.60
1411;DHT22;700;51.906;8.404;2022-07-09T21:59:23;19.20;98.30
1411;DHT22;700;51.906;8.404;2022-07-09T22:04:23;19.00;98.90
1411;DHT22;700;51.906;8.404;2022-07-09T22:09:26;19.10;99.70
1411;DHT22;700;51.906;8.404;2022-07-09T22:14:30;19.00;99.90
1411;DHT22;700;51.906;8.404;2022-07-09T22:19:30;18.90;99.90
1411;DHT22;700;51.906;8.404;2022-07-09T22:24:34;18.70;99.90
1411;DHT22;700;51.906;8.404;2022-07-09T22:29:34;18.60;99.90
1411;DHT22;700;51.906;8.404;2022-07-09T22:34:35;18.70;99.90
1411;DHT22;700;51.906;8.404;2022-07-09T22:39:36;18.70;99.90
1411;DHT22;700;51.906;8.404;2022-07-09T22:44:39;18.80;99.90
1411;DHT22;700;51.906;8.404;2022-07-09T22:49:47;18.80;99.90
1411;DHT22;700;51.906;8.404;2022-07-09T22:54:47;18.80;99.90
1411;DHT22;700;51.906;8.404;2022-07-09T22:59:51;18.80;99.90
1411;DHT22;700;51.906;8.404;2022-07-09T23:04:53;18.90;99.90
1411;DHT22;700;51.906;8.404;2022-07-09T23:09:54;18.90;99.90
1411;DHT22;700;51.906;8.404;2022-07-09T23:14:55;18.90;99.90
1411;DHT22;700;51.906;8.404;2022-07-09T23:19:58;18.80;99.90
1411;DHT22;700;51.906;8.404;2022-07-09T23:24:59;18.80;99.90
1411;DHT22;700;51.906;8.404;2022-07-09T23:30:05;18.70;99.90
1411;DHT22;700;51.906;8.404;2022-07-09T23:35:11;18.80;99.90
1411;DHT22;700;51.906;8.404;2022-07-09T23:40:12;18.90;99.90
1411;DHT22;700;51.906;8.404;2022-07-09T23:45:15;18.90;99.90
1411;DHT22;700;51.906;8.404;2022-07-09T23:50:16;18.90;99.90
1411;DHT22;700;51.906;8.404;2022-07-09T23:55:16;18.90;99.90
